Terminal Aerodrome Forecast
Issued by NWS

Home | Current Version | Previous Version | Text Only | Print | Product List | Glossary On
Versions: 1 2 3 4 5 6 7 8 9 10 11 12 13 14 15
000
FTUS45 KFGZ 261700 RRA
TAFSEZ
TAF
KSEZ 261746Z 2618/2718 VRB05KT P6SM SCT120 BKN200
     FM262000 24009KT P6SM BKN110
     FM270300 04008KT P6SM SCT100
     FM271400 VRB05KT P6SM BKN090=

USA.gov is the U.S. government's official web portal to all federal, state and local government web resources and services.